Terminal Aerodrome Forecast
Issued by NWS Omaha/Valley, NE

Home | Current Version | Previous Version | Graphics & Text | Print | Product List | Glossary On
Versions: 1 2 3 4 5 6 7 8 9 10 11 12 13 14 15 16 17 18 19 20 21 22 23 24 25 26 27 28 29 30 31 32 33
000
FTUS43 KOAX 161120
TAFOFK
TAF
KOFK 161120Z 1612/1712 18007KT P6SM SCT070
      TEMPO 1612/1614 5SM BR
     FM161500 18012KT P6SM SCT050
      TEMPO 1615/1619 BKN050
     FM161900 18013G21KT P6SM SCT040
     FM170000 16010KT P6SM FEW040 SCT250
      TEMPO 1709/1712 4SM BR=

USA.gov is the U.S. government's official web portal to all federal, state and local government web resources and services.